createdAt,value
2023-01-27T00:00:38.610Z,11.93
2023-01-27T00:03:05.253Z,11.27
2023-01-27T00:05:31.400Z,11.37
2023-01-27T00:07:59.627Z,11.10
2023-01-27T00:10:26.486Z,10.73
2023-01-27T00:13:11.376Z,10.13
2023-01-27T00:15:37.690Z,10.07
2023-01-27T00:18:04.065Z,10.20
2023-01-27T00:20:48.671Z,11.10
2023-01-27T00:23:43.188Z,10.17
2023-01-27T00:26:17.217Z,11.50
2023-01-27T00:28:45.945Z,11.20
2023-01-27T00:31:34.014Z,10.70
2023-01-27T00:34:10.312Z,9.37
2023-01-27T00:36:41.324Z,10.07
2023-01-27T00:39:10.863Z,9.43
2023-01-27T00:41:39.020Z,10.07
2023-01-27T00:44:11.900Z,9.87
2023-01-27T00:46:39.549Z,10.20
2023-01-27T00:49:10.020Z,10.67
2023-01-27T00:51:36.540Z,10.43
2023-01-27T00:54:03.343Z,11.97
2023-01-27T00:56:29.771Z,11.40
2023-01-27T00:58:56.133Z,12.30
2023-01-27T01:01:22.833Z,12.47
2023-01-27T01:03:48.950Z,13.27
2023-01-27T01:06:17.533Z,12.20
2023-01-27T01:08:44.217Z,12.37
2023-01-27T01:11:15.949Z,12.90
2023-01-27T01:13:43.593Z,12.33
2023-01-27T01:16:22.262Z,12.17
2023-01-27T01:18:49.191Z,11.97
2023-01-27T01:21:15.963Z,11.97
2023-01-27T01:23:44.885Z,12.27
2023-01-27T01:26:14.249Z,12.47
2023-01-27T01:28:40.633Z,13.83
2023-01-27T01:31:16.686Z,11.33
2023-01-27T01:33:43.226Z,12.97
2023-01-27T01:36:17.341Z,12.53
2023-01-27T01:38:43.700Z,11.70
2023-01-27T01:41:19.153Z,11.43
2023-01-27T01:43:46.944Z,11.67
2023-01-27T01:46:13.689Z,12.27
2023-01-27T01:48:50.754Z,11.97
2023-01-27T01:51:24.755Z,12.03
2023-01-27T01:54:07.706Z,11.90
2023-01-27T01:56:46.213Z,12.23
2023-01-27T01:59:24.858Z,11.23
2023-01-27T02:01:57.887Z,11.97
2023-01-27T02:04:33.719Z,11.77
2023-01-27T02:07:38.978Z,11.40
2023-01-27T02:10:05.680Z,9.90
2023-01-27T02:12:34.964Z,10.33
2023-01-27T02:15:01.118Z,11.20
2023-01-27T02:17:28.001Z,10.53
2023-01-27T02:20:17.984Z,10.57
2023-01-27T02:23:10.162Z,10.57
2023-01-27T02:25:46.557Z,10.17
2023-01-27T02:28:12.729Z,10.10
2023-01-27T02:30:38.931Z,10.07
2023-01-27T02:33:11.884Z,9.47
2023-01-27T02:35:49.211Z,9.60
2023-01-27T02:38:17.966Z,8.23
2023-01-27T02:40:49.722Z,9.53
2023-01-27T02:43:15.866Z,9.77
2023-01-27T02:45:44.632Z,8.73
2023-01-27T02:48:10.929Z,8.33
2023-01-27T02:50:37.065Z,8.40
2023-01-27T02:53:03.205Z,7.87
2023-01-27T02:55:29.392Z,7.13
2023-01-27T02:57:55.992Z,7.20
2023-01-27T03:00:36.392Z,7.03
2023-01-27T03:03:02.532Z,7.77
2023-01-27T03:05:28.666Z,6.63
2023-01-27T03:07:55.304Z,6.07
2023-01-27T03:10:21.557Z,6.20
2023-01-27T03:12:47.668Z,6.10
2023-01-27T03:15:32.227Z,5.50
2023-01-27T03:18:12.697Z,5.40
2023-01-27T03:20:41.694Z,5.57
2023-01-27T03:23:09.034Z,5.43
2023-01-27T03:25:39.340Z,5.43
2023-01-27T03:28:05.474Z,5.20
2023-01-27T03:30:51.595Z,5.30
2023-01-27T03:33:22.714Z,4.90
2023-01-27T03:36:10.148Z,5.27
2023-01-27T03:39:00.504Z,4.73
2023-01-27T03:41:45.701Z,4.77
2023-01-27T03:44:30.165Z,4.50
2023-01-27T03:46:56.293Z,4.47
2023-01-27T03:49:22.412Z,4.50
2023-01-27T03:51:48.532Z,5.10
2023-01-27T03:54:14.720Z,5.00
2023-01-27T03:56:40.896Z,4.60
2023-01-27T03:59:07.030Z,4.57
2023-01-27T04:01:33.194Z,4.13
2023-01-27T04:04:17.697Z,4.50
2023-01-27T04:06:53.661Z,4.40
2023-01-27T04:09:24.534Z,4.87
2023-01-27T04:11:54.380Z,4.50
2023-01-27T04:14:36.925Z,4.40
2023-01-27T04:17:16.354Z,4.40
2023-01-27T04:19:44.951Z,4.40
2023-01-27T04:22:12.616Z,4.27
2023-01-27T04:24:39.175Z,4.40
2023-01-27T04:27:09.436Z,4.50
2023-01-27T04:29:40.208Z,4.80
2023-01-27T04:32:09.561Z,4.57
2023-01-27T04:34:36.359Z,5.00
2023-01-27T04:37:04.639Z,4.90
2023-01-27T04:39:31.145Z,4.73
2023-01-27T04:41:57.560Z,5.07
2023-01-27T04:44:24.272Z,5.07
2023-01-27T04:46:50.825Z,5.23
2023-01-27T04:49:17.654Z,5.80
2023-01-27T04:51:46.164Z,5.57
2023-01-27T04:54:12.450Z,4.63
2023-01-27T04:56:43.620Z,4.87
2023-01-27T04:59:14.873Z,5.27
2023-01-27T05:01:41.552Z,5.27
2023-01-27T05:04:07.769Z,5.40
2023-01-27T05:06:33.904Z,5.00
2023-01-27T05:09:00.625Z,5.30
2023-01-27T05:11:26.764Z,5.40
2023-01-27T05:13:52.931Z,5.37
2023-01-27T05:16:23.050Z,5.50
2023-01-27T05:18:51.949Z,4.93
2023-01-27T05:21:24.895Z,5.30
2023-01-27T05:23:51.442Z,4.67
2023-01-27T05:26:24.487Z,5.10
2023-01-27T05:28:52.445Z,4.60
2023-01-27T05:31:21.381Z,4.47
2023-01-27T05:33:52.405Z,4.90
2023-01-27T05:36:21.828Z,4.93
2023-01-27T05:38:48.525Z,4.67
2023-01-27T05:41:16.725Z,5.50
2023-01-27T05:43:45.402Z,5.00
2023-01-27T05:46:15.001Z,4.90
2023-01-27T05:48:55.561Z,5.10
2023-01-27T05:51:24.089Z,4.80
2023-01-27T05:53:50.700Z,4.93
2023-01-27T05:56:19.155Z,5.77
2023-01-27T05:58:45.749Z,5.00
2023-01-27T06:01:19.205Z,5.40
2023-01-27T06:03:46.859Z,5.37
2023-01-27T06:06:17.397Z,5.10
2023-01-27T06:08:44.902Z,5.87
2023-01-27T06:11:12.408Z,5.07
2023-01-27T06:13:39.356Z,5.40
2023-01-27T06:16:09.883Z,4.43
2023-01-27T06:18:37.319Z,5.47
2023-01-27T06:21:07.349Z,5.17
2023-01-27T06:23:33.753Z,5.50
2023-01-27T06:26:08.185Z,6.10
2023-01-27T06:28:35.744Z,5.17
2023-01-27T06:31:07.529Z,4.67
2023-01-27T06:33:33.732Z,4.80
2023-01-27T06:36:07.020Z,5.33
2023-01-27T06:38:34.261Z,5.40
2023-01-27T06:41:00.628Z,5.03
2023-01-27T06:43:27.015Z,4.80
2023-01-27T06:45:53.393Z,5.17
2023-01-27T06:48:19.901Z,5.40
2023-01-27T06:50:46.037Z,5.87
2023-01-27T06:53:12.176Z,5.83
2023-01-27T06:55:41.300Z,5.87
2023-01-27T06:58:08.977Z,6.37
2023-01-27T07:00:36.838Z,5.67
2023-01-27T07:03:03.697Z,6.03
2023-01-27T07:05:30.568Z,5.77
2023-01-27T07:07:56.680Z,5.90
2023-01-27T07:10:22.985Z,4.83
2023-01-27T07:12:49.428Z,5.00
2023-01-27T07:15:15.759Z,5.27
2023-01-27T07:17:42.199Z,5.37
2023-01-27T07:20:12.597Z,4.87
2023-01-27T07:22:39.174Z,5.23
2023-01-27T07:25:06.349Z,4.93
2023-01-27T07:27:32.507Z,4.73
2023-01-27T07:29:58.660Z,5.53
2023-01-27T07:32:27.200Z,5.47
2023-01-27T07:34:54.168Z,5.33
2023-01-27T07:37:20.296Z,5.47
2023-01-27T07:39:47.480Z,6.23
2023-01-27T07:42:13.613Z,4.77
2023-01-27T07:44:39.866Z,4.73
2023-01-27T07:47:06.020Z,4.60
2023-01-27T07:49:32.113Z,5.13
2023-01-27T07:51:58.237Z,6.00
2023-01-27T07:54:24.561Z,5.47
2023-01-27T07:56:50.683Z,5.43
2023-01-27T07:59:16.767Z,4.70
2023-01-27T08:01:42.960Z,6.07
2023-01-27T08:04:09.163Z,3.83
2023-01-27T08:06:38.734Z,4.40
2023-01-27T08:09:05.846Z,5.30
2023-01-27T08:11:32.042Z,7.27
2023-01-27T08:13:58.225Z,3.87
2023-01-27T08:16:24.375Z,3.80
2023-01-27T08:18:53.132Z,3.57
2023-01-27T08:21:20.112Z,3.67
2023-01-27T08:23:46.351Z,3.50
2023-01-27T08:26:12.579Z,3.50
2023-01-27T08:28:40.143Z,3.40
2023-01-27T08:31:15.759Z,3.67
2023-01-27T08:33:44.657Z,3.50
2023-01-27T08:36:14.743Z,3.63
2023-01-27T08:38:43.156Z,3.67
2023-01-27T08:41:14.288Z,3.97
2023-01-27T08:43:41.061Z,4.20
2023-01-27T08:46:08.630Z,3.43
2023-01-27T08:48:36.628Z,3.93
2023-01-27T08:51:05.144Z,3.73
2023-01-27T08:53:31.907Z,3.90
2023-01-27T08:56:03.984Z,3.20
2023-01-27T08:58:30.188Z,3.60
2023-01-27T09:01:01.471Z,3.50
2023-01-27T09:03:29.240Z,6.80
2023-01-27T09:05:55.813Z,4.77
2023-01-27T09:08:22.681Z,3.70
2023-01-27T09:10:49.165Z,3.63
2023-01-27T09:13:16.254Z,3.50
2023-01-27T09:15:43.076Z,4.53
2023-01-27T09:18:10.189Z,3.50
2023-01-27T09:20:36.646Z,3.67
2023-01-27T09:23:04.428Z,4.77
2023-01-27T09:25:31.103Z,3.23
2023-01-27T09:27:59.136Z,3.40
2023-01-27T09:30:27.573Z,3.47
2023-01-27T09:32:59.336Z,3.60
2023-01-27T09:35:34.557Z,3.60
2023-01-27T09:38:03.611Z,3.83
2023-01-27T09:40:41.066Z,4.17
2023-01-27T09:43:33.064Z,4.00
2023-01-27T09:46:21.678Z,3.73
2023-01-27T09:49:28.519Z,3.30
2023-01-27T09:52:46.875Z,3.47
2023-01-27T09:55:55.431Z,3.20
2023-01-27T09:58:57.820Z,3.53
2023-01-27T10:01:44.307Z,3.10
2023-01-27T10:04:57.219Z,3.40
2023-01-27T10:08:13.296Z,3.30
2023-01-27T10:11:11.896Z,3.10
2023-01-27T10:14:03.672Z,3.70
2023-01-27T10:16:54.143Z,5.83
2023-01-27T10:19:42.105Z,4.83
2023-01-27T10:22:42.572Z,5.77
2023-01-27T10:25:36.588Z,3.97
2023-01-27T10:28:13.646Z,3.50
2023-01-27T10:30:59.979Z,3.80
2023-01-27T10:33:59.813Z,3.90
2023-01-27T10:36:29.518Z,3.80
2023-01-27T10:39:39.176Z,3.33
2023-01-27T10:42:48.000Z,3.67
2023-01-27T10:45:39.813Z,2.90
2023-01-27T10:48:33.983Z,2.97
2023-01-27T10:51:27.829Z,3.80
2023-01-27T10:54:04.880Z,3.47
2023-01-27T10:56:48.851Z,3.67
2023-01-27T11:00:21.935Z,4.00
2023-01-27T11:03:06.716Z,4.40
2023-01-27T11:05:46.473Z,4.13
2023-01-27T11:08:19.153Z,3.87
2023-01-27T11:11:09.214Z,4.20
2023-01-27T11:13:37.578Z,4.00
2023-01-27T11:16:10.893Z,4.30
2023-01-27T11:18:38.353Z,4.47
2023-01-27T11:21:11.468Z,4.30
2023-01-27T11:23:46.104Z,4.17
2023-01-27T11:26:39.545Z,4.10
2023-01-27T11:29:42.428Z,3.77
2023-01-27T11:32:37.953Z,3.70
2023-01-27T11:35:13.812Z,4.47
2023-01-27T11:37:47.485Z,3.97
2023-01-27T11:40:35.507Z,3.87
2023-01-27T11:43:03.093Z,4.00
2023-01-27T11:45:35.153Z,4.07
2023-01-27T11:48:07.202Z,4.20
2023-01-27T11:50:35.367Z,4.20
2023-01-27T11:53:23.526Z,3.80
2023-01-27T11:55:56.624Z,3.50
2023-01-27T11:58:37.777Z,4.20
2023-01-27T12:01:14.869Z,3.90
2023-01-27T12:04:10.565Z,3.87
2023-01-27T12:06:54.284Z,4.00
2023-01-27T12:09:38.326Z,3.37
2023-01-27T12:12:14.936Z,3.60
2023-01-27T12:14:59.036Z,3.53
2023-01-27T12:17:44.069Z,5.60
2023-01-27T12:20:37.628Z,3.40
2023-01-27T12:23:27.375Z,4.00
2023-01-27T12:25:59.448Z,4.20
2023-01-27T12:28:32.758Z,3.20
2023-01-27T12:31:24.014Z,2.90
2023-01-27T12:34:28.927Z,3.50
2023-01-27T12:36:56.952Z,3.63
2023-01-27T12:39:34.155Z,3.40
2023-01-27T12:42:00.486Z,4.33
2023-01-27T12:44:40.333Z,3.43
2023-01-27T12:47:28.563Z,3.17
2023-01-27T12:50:32.836Z,4.00
2023-01-27T12:53:17.969Z,3.63
2023-01-27T12:56:11.423Z,3.07
2023-01-27T12:58:58.933Z,3.77
2023-01-27T13:01:37.592Z,3.10
2023-01-27T13:04:09.727Z,2.90
2023-01-27T13:06:46.754Z,3.07
2023-01-27T13:09:36.971Z,3.33
2023-01-27T13:12:34.021Z,3.40
2023-01-27T13:15:18.435Z,3.20
2023-01-27T13:17:55.969Z,3.63
2023-01-27T13:20:39.985Z,4.10
2023-01-27T13:23:24.407Z,3.13
2023-01-27T13:26:09.098Z,4.10
2023-01-27T13:28:58.851Z,3.30
2023-01-27T13:31:48.836Z,3.20
2023-01-27T13:35:04.857Z,3.37
2023-01-27T13:37:43.079Z,3.00
2023-01-27T13:40:26.812Z,4.33
2023-01-27T13:43:08.974Z,3.27
2023-01-27T13:45:45.426Z,3.67
2023-01-27T13:48:22.530Z,5.03
2023-01-27T13:51:17.271Z,5.53
2023-01-27T13:53:46.903Z,3.60
2023-01-27T13:56:33.879Z,3.33
2023-01-27T13:59:21.229Z,3.20
2023-01-27T14:02:38.211Z,3.10
2023-01-27T14:05:38.733Z,3.23
2023-01-27T14:08:44.441Z,3.40
2023-01-27T14:11:29.494Z,5.67
2023-01-27T14:14:13.511Z,10.30
2023-01-27T14:17:09.680Z,4.03
2023-01-27T14:20:29.993Z,3.27
2023-01-27T14:24:00.807Z,3.70
2023-01-27T14:27:13.749Z,3.20
2023-01-27T14:30:04.983Z,3.10
2023-01-27T14:32:57.019Z,3.10
2023-01-27T14:35:55.861Z,3.20
2023-01-27T14:38:49.258Z,3.33
2023-01-27T14:41:51.833Z,2.93
2023-01-27T14:45:04.648Z,3.30
2023-01-27T14:47:42.902Z,3.30
2023-01-27T14:50:42.741Z,3.17
2023-01-27T14:53:45.775Z,3.43
2023-01-27T14:56:30.215Z,3.20
2023-01-27T14:59:10.152Z,3.37
2023-01-27T15:02:18.322Z,3.20
2023-01-27T15:05:19.983Z,3.40
2023-01-27T15:08:05.382Z,3.60
2023-01-27T15:10:32.995Z,3.97
2023-01-27T15:13:36.504Z,4.00
2023-01-27T15:16:25.742Z,3.63
2023-01-27T15:19:25.109Z,3.93
2023-01-27T15:22:37.211Z,3.30
2023-01-27T15:25:13.139Z,3.33
2023-01-27T15:27:40.234Z,3.53
2023-01-27T15:30:21.251Z,3.37
2023-01-27T15:32:47.669Z,3.50
2023-01-27T15:35:35.355Z,3.70
2023-01-27T15:38:04.420Z,3.50
2023-01-27T15:41:05.203Z,3.50
2023-01-27T15:43:36.023Z,3.53
2023-01-27T15:46:28.354Z,3.53
2023-01-27T15:48:56.404Z,3.83
2023-01-27T15:51:23.871Z,3.90
2023-01-27T15:53:55.703Z,4.27
2023-01-27T15:56:51.425Z,4.10
2023-01-27T15:59:24.353Z,3.57
2023-01-27T16:02:27.285Z,3.90
2023-01-27T16:05:14.953Z,4.27
2023-01-27T16:07:41.996Z,3.47
2023-01-27T16:10:19.088Z,3.70
2023-01-27T16:12:47.758Z,4.30
2023-01-27T16:15:31.778Z,4.83
2023-01-27T16:18:06.800Z,4.50
2023-01-27T16:20:58.877Z,4.53
2023-01-27T16:23:49.478Z,4.17
2023-01-27T16:26:47.636Z,4.30
2023-01-27T16:29:39.427Z,4.27
2023-01-27T16:32:17.725Z,4.20
2023-01-27T16:34:49.693Z,4.67
2023-01-27T16:37:25.599Z,4.53
2023-01-27T16:40:06.147Z,4.20
2023-01-27T16:43:05.339Z,5.87
2023-01-27T16:45:52.551Z,5.27
2023-01-27T16:48:28.032Z,4.90
2023-01-27T16:51:08.195Z,6.17
2023-01-27T16:53:34.718Z,6.67
2023-01-27T16:56:14.692Z,5.87
2023-01-27T16:58:46.821Z,7.63
2023-01-27T17:01:29.898Z,5.90
2023-01-27T17:04:18.002Z,5.70
2023-01-27T17:06:45.668Z,6.00
2023-01-27T17:09:23.842Z,6.83
2023-01-27T17:11:51.845Z,7.50
2023-01-27T17:14:30.301Z,6.27
2023-01-27T17:17:01.233Z,6.87
2023-01-27T17:19:32.865Z,6.20
2023-01-27T17:22:02.941Z,6.73
2023-01-27T17:24:37.826Z,6.57
2023-01-27T17:27:40.185Z,6.67
2023-01-27T17:30:16.090Z,6.67
2023-01-27T17:32:48.606Z,5.93
2023-01-27T17:35:32.073Z,6.13
2023-01-27T17:38:35.352Z,7.13
2023-01-27T17:41:01.596Z,7.00
2023-01-27T17:43:37.652Z,9.77
2023-01-27T17:46:23.633Z,8.90
2023-01-27T17:49:10.880Z,11.77
2023-01-27T17:51:41.099Z,19.33
2023-01-27T17:54:21.010Z,10.57
2023-01-27T17:56:54.739Z,10.47
2023-01-27T17:59:25.848Z,7.80
2023-01-27T18:01:55.204Z,7.77
2023-01-27T18:04:23.936Z,6.73
2023-01-27T18:06:51.351Z,6.70
2023-01-27T18:09:25.919Z,7.17
2023-01-27T18:12:00.575Z,10.90
2023-01-27T18:14:33.598Z,7.47
2023-01-27T18:17:22.319Z,6.07
2023-01-27T18:19:50.655Z,5.93
2023-01-27T18:22:17.895Z,6.60
2023-01-27T18:24:55.957Z,8.30
2023-01-27T18:27:25.494Z,9.30
2023-01-27T18:29:59.543Z,11.87
2023-01-27T18:32:36.882Z,9.37
2023-01-27T18:35:28.299Z,21.03
2023-01-27T18:38:18.011Z,23.37
2023-01-27T18:40:44.746Z,8.80
2023-01-27T18:43:13.147Z,10.77
2023-01-27T18:45:43.065Z,11.97
2023-01-27T18:48:15.407Z,10.90
2023-01-27T18:50:44.597Z,9.37
2023-01-27T18:53:19.902Z,15.57
2023-01-27T18:55:46.326Z,7.73
2023-01-27T18:58:12.435Z,42.47
2023-01-27T19:00:45.947Z,26.20
2023-01-27T19:03:18.550Z,15.73
2023-01-27T19:05:45.946Z,12.87
2023-01-27T19:08:21.482Z,14.60
2023-01-27T19:10:48.578Z,12.80
2023-01-27T19:13:15.829Z,9.87
2023-01-27T19:15:53.400Z,7.20
2023-01-27T19:18:24.965Z,6.60
2023-01-27T19:20:52.107Z,6.40
2023-01-27T19:23:20.337Z,6.93
2023-01-27T19:25:50.810Z,6.70
2023-01-27T19:28:35.554Z,6.40
2023-01-27T19:31:02.465Z,6.63
2023-01-27T19:33:32.753Z,6.10
2023-01-27T19:36:05.686Z,6.67
2023-01-27T19:38:31.893Z,7.30
2023-01-27T19:40:58.020Z,9.83
2023-01-27T19:43:24.465Z,7.77
2023-01-27T19:45:51.542Z,11.53
2023-01-27T19:48:22.528Z,12.50
2023-01-27T19:50:50.679Z,8.70
2023-01-27T19:53:19.045Z,8.67
2023-01-27T19:55:46.740Z,7.20
2023-01-27T19:58:24.874Z,7.83
2023-01-27T20:00:52.488Z,8.50
2023-01-27T20:03:18.882Z,7.27
2023-01-27T20:05:46.295Z,7.90
2023-01-27T20:08:19.003Z,7.67
2023-01-27T20:10:45.749Z,11.90
2023-01-27T20:13:19.464Z,16.97
2023-01-27T20:15:46.763Z,10.43
2023-01-27T20:18:16.209Z,9.60
2023-01-27T20:20:43.461Z,9.47
2023-01-27T20:23:13.379Z,8.17
2023-01-27T20:25:39.519Z,7.40
2023-01-27T20:28:05.768Z,6.73
2023-01-27T20:30:33.725Z,7.03
2023-01-27T20:33:02.862Z,7.70
2023-01-27T20:35:30.062Z,6.53
2023-01-27T20:37:56.583Z,6.40
2023-01-27T20:40:26.974Z,7.73
2023-01-27T20:42:53.666Z,8.07
2023-01-27T20:45:21.575Z,6.43
2023-01-27T20:47:50.443Z,6.50
2023-01-27T20:50:17.919Z,6.13
2023-01-27T20:52:44.514Z,7.30
2023-01-27T20:55:13.941Z,7.07
2023-01-27T20:57:40.356Z,6.63
2023-01-27T21:00:08.098Z,6.97
2023-01-27T21:02:34.254Z,6.90
2023-01-27T21:05:01.319Z,6.50
2023-01-27T21:07:27.777Z,6.50
2023-01-27T21:09:54.488Z,6.30
2023-01-27T21:12:21.421Z,6.30
2023-01-27T21:14:47.721Z,7.47
2023-01-27T21:17:14.092Z,7.63
2023-01-27T21:19:40.261Z,7.77
2023-01-27T21:22:06.463Z,7.43
2023-01-27T21:24:33.406Z,7.63
2023-01-27T21:26:59.568Z,8.93
2023-01-27T21:29:25.711Z,8.10
2023-01-27T21:31:52.141Z,8.70
2023-01-27T21:34:18.568Z,6.87
2023-01-27T21:36:44.736Z,6.73
2023-01-27T21:39:11.396Z,6.63
2023-01-27T21:41:52.973Z,6.73
2023-01-27T21:44:47.700Z,5.87
2023-01-27T21:47:18.739Z,5.63
2023-01-27T21:50:02.317Z,5.50
2023-01-27T21:52:38.343Z,5.03
2023-01-27T21:55:12.000Z,5.30
2023-01-27T21:57:38.929Z,4.90
2023-01-27T22:00:10.026Z,5.17
2023-01-27T22:02:39.957Z,4.60
2023-01-27T22:05:08.485Z,4.70
2023-01-27T22:07:37.525Z,4.87
2023-01-27T22:10:13.668Z,4.50
2023-01-27T22:12:39.915Z,5.47
2023-01-27T22:15:08.949Z,5.10
2023-01-27T22:17:35.568Z,5.70
2023-01-27T22:20:03.549Z,5.60
2023-01-27T22:22:29.810Z,5.00
2023-01-27T22:24:55.967Z,4.77
2023-01-27T22:27:23.251Z,4.83
2023-01-27T22:29:49.422Z,5.27
2023-01-27T22:32:15.579Z,4.90
2023-01-27T22:34:43.643Z,5.73
2023-01-27T22:37:09.850Z,5.83
2023-01-27T22:39:37.430Z,5.37
2023-01-27T22:42:03.734Z,5.30
2023-01-27T22:44:29.887Z,5.57
2023-01-27T22:46:56.173Z,5.80
2023-01-27T22:49:22.425Z,5.23
2023-01-27T22:51:48.910Z,5.30
2023-01-27T22:54:15.142Z,5.80
2023-01-27T22:56:42.385Z,4.97
2023-01-27T22:59:12.329Z,5.70
2023-01-27T23:01:40.083Z,5.60
2023-01-27T23:04:06.316Z,5.43
2023-01-27T23:06:32.451Z,5.63
2023-01-27T23:08:58.604Z,5.63
2023-01-27T23:11:24.740Z,6.10
2023-01-27T23:13:50.924Z,6.03
2023-01-27T23:16:17.108Z,6.53
2023-01-27T23:18:43.298Z,6.43
2023-01-27T23:21:11.038Z,5.87
2023-01-27T23:23:37.314Z,6.37
2023-01-27T23:26:08.284Z,7.87
2023-01-27T23:28:37.464Z,6.87
2023-01-27T23:31:10.981Z,6.80
2023-01-27T23:33:39.935Z,6.63
2023-01-27T23:36:08.359Z,7.77
2023-01-27T23:38:38.364Z,7.50
2023-01-27T23:41:17.130Z,7.03
2023-01-27T23:43:49.303Z,6.53
2023-01-27T23:46:15.684Z,7.20
2023-01-27T23:48:41.884Z,7.63
2023-01-27T23:51:12.319Z,7.60
2023-01-27T23:53:38.532Z,8.10
2023-01-27T23:56:05.615Z,8.00
2023-01-27T23:58:32.204Z,8.00
